sensor_id;sensor_type;location;lat;lon;timestamp;P1;durP1;ratioP1;P2;durP2;ratioP2
62794;SDS011;48836;51.378;0.102;2022-07-04T00:01:41;4.60;;;1.63;;
62794;SDS011;48836;51.378;0.102;2022-07-04T00:04:09;4.00;;;1.38;;
62794;SDS011;48836;51.378;0.102;2022-07-04T00:06:37;1.65;;;1.40;;
62794;SDS011;48836;51.378;0.102;2022-07-04T00:09:04;2.10;;;1.27;;
62794;SDS011;48836;51.378;0.102;2022-07-04T00:11:32;5.78;;;2.58;;
62794;SDS011;48836;51.378;0.102;2022-07-04T00:13:59;2.90;;;1.40;;
62794;SDS011;48836;51.378;0.102;2022-07-04T00:16:28;2.38;;;1.10;;
62794;SDS011;48836;51.378;0.102;2022-07-04T00:18:56;3.22;;;1.52;;
62794;SDS011;48836;51.378;0.102;2022-07-04T00:21:23;2.22;;;1.15;;
62794;SDS011;48836;51.378;0.102;2022-07-04T00:23:51;3.50;;;1.60;;
62794;SDS011;48836;51.378;0.102;2022-07-04T00:26:19;1.40;;;1.20;;
62794;SDS011;48836;51.378;0.102;2022-07-04T00:28:46;1.85;;;1.30;;
62794;SDS011;48836;51.378;0.102;2022-07-04T00:31:14;2.05;;;1.00;;
62794;SDS011;48836;51.378;0.102;2022-07-04T00:33:42;2.88;;;1.20;;
62794;SDS011;48836;51.378;0.102;2022-07-04T00:36:09;1.85;;;1.20;;
62794;SDS011;48836;51.378;0.102;2022-07-04T00:38:37;2.55;;;1.30;;
62794;SDS011;48836;51.378;0.102;2022-07-04T00:41:05;5.25;;;1.30;;
62794;SDS011;48836;51.378;0.102;2022-07-04T00:43:32;1.38;;;1.15;;
62794;SDS011;48836;51.378;0.102;2022-07-04T00:46:20;1.23;;;1.13;;
62794;SDS011;48836;51.378;0.102;2022-07-04T00:48:48;1.40;;;1.30;;
62794;SDS011;48836;51.378;0.102;2022-07-04T00:51:15;1.35;;;1.20;;
62794;SDS011;48836;51.378;0.102;2022-07-04T00:53:45;2.80;;;1.30;;
62794;SDS011;48836;51.378;0.102;2022-07-04T00:56:12;1.33;;;1.02;;
62794;SDS011;48836;51.378;0.102;2022-07-04T00:58:40;2.20;;;1.13;;
62794;SDS011;48836;51.378;0.102;2022-07-04T01:01:07;1.73;;;1.63;;
62794;SDS011;48836;51.378;0.102;2022-07-04T01:03:35;1.13;;;1.10;;
62794;SDS011;48836;51.378;0.102;2022-07-04T01:06:03;2.47;;;1.25;;
62794;SDS011;48836;51.378;0.102;2022-07-04T01:08:31;2.85;;;1.00;;
62794;SDS011;48836;51.378;0.102;2022-07-04T01:10:59;2.22;;;1.13;;
62794;SDS011;48836;51.378;0.102;2022-07-04T01:13:26;3.53;;;1.30;;
62794;SDS011;48836;51.378;0.102;2022-07-04T01:15:54;1.13;;;1.10;;
62794;SDS011;48836;51.378;0.102;2022-07-04T01:18:22;3.42;;;1.85;;
62794;SDS011;48836;51.378;0.102;2022-07-04T01:20:50;4.05;;;1.25;;
62794;SDS011;48836;51.378;0.102;2022-07-04T01:23:18;1.42;;;1.30;;
62794;SDS011;48836;51.378;0.102;2022-07-04T01:25:45;4.30;;;1.40;;
62794;SDS011;48836;51.378;0.102;2022-07-04T01:28:15;1.58;;;1.27;;
62794;SDS011;48836;51.378;0.102;2022-07-04T01:30:45;2.70;;;1.10;;
62794;SDS011;48836;51.378;0.102;2022-07-04T01:33:12;2.78;;;1.20;;
62794;SDS011;48836;51.378;0.102;2022-07-04T01:35:40;1.30;;;1.20;;
62794;SDS011;48836;51.378;0.102;2022-07-04T01:38:08;1.60;;;1.40;;
62794;SDS011;48836;51.378;0.102;2022-07-04T01:40:36;1.42;;;1.40;;
62794;SDS011;48836;51.378;0.102;2022-07-04T01:43:03;3.10;;;1.92;;
62794;SDS011;48836;51.378;0.102;2022-07-04T01:45:31;2.03;;;1.50;;
62794;SDS011;48836;51.378;0.102;2022-07-04T01:50:28;1.13;;;1.13;;
62794;SDS011;48836;51.378;0.102;2022-07-04T01:52:56;2.97;;;1.63;;
62794;SDS011;48836;51.378;0.102;2022-07-04T01:55:23;1.40;;;1.30;;
62794;SDS011;48836;51.378;0.102;2022-07-04T01:57:51;1.52;;;1.02;;
62794;SDS011;48836;51.378;0.102;2022-07-04T02:00:19;1.60;;;1.50;;
62794;SDS011;48836;51.378;0.102;2022-07-04T02:03:05;3.05;;;1.60;;
62794;SDS011;48836;51.378;0.102;2022-07-04T02:05:32;1.65;;;1.40;;
62794;SDS011;48836;51.378;0.102;2022-07-04T02:08:00;1.42;;;1.33;;
62794;SDS011;48836;51.378;0.102;2022-07-04T02:10:28;1.60;;;1.50;;
62794;SDS011;48836;51.378;0.102;2022-07-04T02:12:55;3.63;;;1.80;;
62794;SDS011;48836;51.378;0.102;2022-07-04T02:15:36;2.75;;;1.45;;
62794;SDS011;48836;51.378;0.102;2022-07-04T02:18:09;1.20;;;1.10;;
62794;SDS011;48836;51.378;0.102;2022-07-04T02:20:37;2.45;;;1.77;;
62794;SDS011;48836;51.378;0.102;2022-07-04T02:23:05;2.65;;;1.40;;
62794;SDS011;48836;51.378;0.102;2022-07-04T02:25:33;2.80;;;1.58;;
62794;SDS011;48836;51.378;0.102;2022-07-04T02:28:00;1.70;;;1.30;;
62794;SDS011;48836;51.378;0.102;2022-07-04T02:30:28;3.65;;;1.58;;
62794;SDS011;48836;51.378;0.102;2022-07-04T02:32:56;3.00;;;1.63;;
62794;SDS011;48836;51.378;0.102;2022-07-04T02:35:23;2.97;;;1.85;;
62794;SDS011;48836;51.378;0.102;2022-07-04T02:37:51;2.38;;;1.50;;
62794;SDS011;48836;51.378;0.102;2022-07-04T02:40:19;3.70;;;1.80;;
62794;SDS011;48836;51.378;0.102;2022-07-04T02:42:46;3.67;;;1.70;;
62794;SDS011;48836;51.378;0.102;2022-07-04T02:45:14;2.63;;;1.48;;
62794;SDS011;48836;51.378;0.102;2022-07-04T02:47:41;1.88;;;1.40;;
62794;SDS011;48836;51.378;0.102;2022-07-04T02:50:09;3.75;;;1.42;;
62794;SDS011;48836;51.378;0.102;2022-07-04T02:52:37;2.95;;;1.50;;
62794;SDS011;48836;51.378;0.102;2022-07-04T02:55:05;3.28;;;1.70;;
62794;SDS011;48836;51.378;0.102;2022-07-04T02:57:32;7.65;;;1.88;;
62794;SDS011;48836;51.378;0.102;2022-07-04T03:00:04;3.50;;;1.70;;
62794;SDS011;48836;51.378;0.102;2022-07-04T03:02:32;5.13;;;1.85;;
62794;SDS011;48836;51.378;0.102;2022-07-04T03:05:00;2.60;;;1.95;;
62794;SDS011;48836;51.378;0.102;2022-07-04T03:07:27;3.05;;;1.92;;
62794;SDS011;48836;51.378;0.102;2022-07-04T03:09:55;2.75;;;1.45;;
62794;SDS011;48836;51.378;0.102;2022-07-04T03:12:23;1.60;;;1.50;;
62794;SDS011;48836;51.378;0.102;2022-07-04T03:14:50;2.65;;;1.50;;
62794;SDS011;48836;51.378;0.102;2022-07-04T03:17:20;2.20;;;1.98;;
62794;SDS011;48836;51.378;0.102;2022-07-04T03:19:48;3.20;;;1.55;;
62794;SDS011;48836;51.378;0.102;2022-07-04T03:22:16;2.55;;;1.73;;
62794;SDS011;48836;51.378;0.102;2022-07-04T03:24:43;1.80;;;1.70;;
62794;SDS011;48836;51.378;0.102;2022-07-04T03:27:11;6.72;;;1.90;;
62794;SDS011;48836;51.378;0.102;2022-07-04T03:29:39;3.20;;;1.50;;
62794;SDS011;48836;51.378;0.102;2022-07-04T03:32:07;3.42;;;1.88;;
62794;SDS011;48836;51.378;0.102;2022-07-04T03:34:35;1.85;;;1.45;;
62794;SDS011;48836;51.378;0.102;2022-07-04T03:37:03;2.47;;;1.67;;
62794;SDS011;48836;51.378;0.102;2022-07-04T03:39:31;1.67;;;1.58;;
62794;SDS011;48836;51.378;0.102;2022-07-04T03:41:58;2.90;;;1.80;;
62794;SDS011;48836;51.378;0.102;2022-07-04T03:44:26;2.80;;;2.00;;
62794;SDS011;48836;51.378;0.102;2022-07-04T03:46:53;2.97;;;1.92;;
62794;SDS011;48836;51.378;0.102;2022-07-04T03:49:21;3.42;;;1.60;;
62794;SDS011;48836;51.378;0.102;2022-07-04T03:51:48;6.60;;;1.35;;
62794;SDS011;48836;51.378;0.102;2022-07-04T03:54:16;2.10;;;1.60;;
62794;SDS011;48836;51.378;0.102;2022-07-04T03:56:44;1.92;;;1.60;;
62794;SDS011;48836;51.378;0.102;2022-07-04T03:59:12;3.47;;;1.77;;
62794;SDS011;48836;51.378;0.102;2022-07-04T04:01:39;1.65;;;1.50;;
62794;SDS011;48836;51.378;0.102;2022-07-04T04:04:08;4.90;;;1.60;;
62794;SDS011;48836;51.378;0.102;2022-07-04T04:06:54;3.28;;;1.55;;
62794;SDS011;48836;51.378;0.102;2022-07-04T04:09:22;3.05;;;2.10;;
62794;SDS011;48836;51.378;0.102;2022-07-04T04:11:51;2.25;;;1.90;;
62794;SDS011;48836;51.378;0.102;2022-07-04T04:14:19;3.15;;;1.40;;
62794;SDS011;48836;51.378;0.102;2022-07-04T04:16:47;1.80;;;1.70;;
62794;SDS011;48836;51.378;0.102;2022-07-04T04:19:14;2.70;;;1.58;;
62794;SDS011;48836;51.378;0.102;2022-07-04T04:21:42;4.80;;;1.75;;
62794;SDS011;48836;51.378;0.102;2022-07-04T04:24:10;3.05;;;1.60;;
62794;SDS011;48836;51.378;0.102;2022-07-04T04:26:37;4.30;;;2.30;;
62794;SDS011;48836;51.378;0.102;2022-07-04T04:29:05;2.03;;;1.40;;
62794;SDS011;48836;51.378;0.102;2022-07-04T04:31:33;3.35;;;1.70;;
62794;SDS011;48836;51.378;0.102;2022-07-04T04:34:00;2.45;;;1.73;;
62794;SDS011;48836;51.378;0.102;2022-07-04T04:36:28;1.75;;;1.65;;
62794;SDS011;48836;51.378;0.102;2022-07-04T04:38:55;3.50;;;1.70;;
62794;SDS011;48836;51.378;0.102;2022-07-04T04:41:23;4.10;;;1.48;;
62794;SDS011;48836;51.378;0.102;2022-07-04T04:43:51;1.88;;;1.67;;
62794;SDS011;48836;51.378;0.102;2022-07-04T04:46:20;7.03;;;1.60;;
62794;SDS011;48836;51.378;0.102;2022-07-04T04:48:47;4.35;;;1.73;;
62794;SDS011;48836;51.378;0.102;2022-07-04T04:51:15;2.10;;;1.40;;
62794;SDS011;48836;51.378;0.102;2022-07-04T04:53:43;1.92;;;1.38;;
62794;SDS011;48836;51.378;0.102;2022-07-04T04:56:10;1.70;;;1.60;;
62794;SDS011;48836;51.378;0.102;2022-07-04T04:58:38;3.00;;;2.25;;
62794;SDS011;48836;51.378;0.102;2022-07-04T05:01:06;2.50;;;1.75;;
62794;SDS011;48836;51.378;0.102;2022-07-04T05:03:54;3.58;;;2.17;;
62794;SDS011;48836;51.378;0.102;2022-07-04T05:06:22;3.42;;;1.75;;
62794;SDS011;48836;51.378;0.102;2022-07-04T05:08:50;2.90;;;1.50;;
62794;SDS011;48836;51.378;0.102;2022-07-04T05:11:17;1.70;;;1.40;;
62794;SDS011;48836;51.378;0.102;2022-07-04T05:13:45;1.58;;;1.42;;
62794;SDS011;48836;51.378;0.102;2022-07-04T05:16:13;2.30;;;1.52;;
62794;SDS011;48836;51.378;0.102;2022-07-04T05:18:40;2.58;;;1.65;;
62794;SDS011;48836;51.378;0.102;2022-07-04T05:21:08;3.25;;;1.55;;
62794;SDS011;48836;51.378;0.102;2022-07-04T05:23:36;3.35;;;1.55;;
62794;SDS011;48836;51.378;0.102;2022-07-04T05:26:03;3.42;;;1.63;;
62794;SDS011;48836;51.378;0.102;2022-07-04T05:28:31;2.72;;;1.50;;
62794;SDS011;48836;51.378;0.102;2022-07-04T05:30:58;4.15;;;1.65;;
62794;SDS011;48836;51.378;0.102;2022-07-04T05:33:26;2.22;;;1.50;;
62794;SDS011;48836;51.378;0.102;2022-07-04T05:35:54;4.05;;;1.45;;
62794;SDS011;48836;51.378;0.102;2022-07-04T05:38:21;3.30;;;1.48;;
62794;SDS011;48836;51.378;0.102;2022-07-04T05:40:49;2.28;;;1.30;;
62794;SDS011;48836;51.378;0.102;2022-07-04T05:43:17;3.58;;;1.50;;
62794;SDS011;48836;51.378;0.102;2022-07-04T05:45:44;3.38;;;1.60;;
62794;SDS011;48836;51.378;0.102;2022-07-04T05:48:12;2.70;;;1.63;;
62794;SDS011;48836;51.378;0.102;2022-07-04T05:50:40;2.95;;;1.58;;
62794;SDS011;48836;51.378;0.102;2022-07-04T05:53:07;3.70;;;1.52;;
62794;SDS011;48836;51.378;0.102;2022-07-04T05:55:35;3.35;;;1.50;;
62794;SDS011;48836;51.378;0.102;2022-07-04T05:58:03;2.00;;;1.20;;
62794;SDS011;48836;51.378;0.102;2022-07-04T06:00:31;1.50;;;1.33;;
62794;SDS011;48836;51.378;0.102;2022-07-04T06:02:58;3.33;;;1.60;;
62794;SDS011;48836;51.378;0.102;2022-07-04T06:05:26;2.65;;;1.40;;
62794;SDS011;48836;51.378;0.102;2022-07-04T06:07:53;3.55;;;1.50;;
62794;SDS011;48836;51.378;0.102;2022-07-04T06:10:21;3.13;;;1.38;;
62794;SDS011;48836;51.378;0.102;2022-07-04T06:12:49;2.78;;;1.30;;
62794;SDS011;48836;51.378;0.102;2022-07-04T06:15:16;1.40;;;1.05;;
62794;SDS011;48836;51.378;0.102;2022-07-04T06:17:44;6.38;;;1.48;;
62794;SDS011;48836;51.378;0.102;2022-07-04T06:20:12;3.13;;;1.30;;
62794;SDS011;48836;51.378;0.102;2022-07-04T06:22:43;1.40;;;1.30;;
62794;SDS011;48836;51.378;0.102;2022-07-04T06:25:13;3.13;;;1.30;;
62794;SDS011;48836;51.378;0.102;2022-07-04T06:30:10;2.90;;;1.17;;
62794;SDS011;48836;51.378;0.102;2022-07-04T06:32:45;3.23;;;1.40;;
62794;SDS011;48836;51.378;0.102;2022-07-04T06:35:24;1.88;;;1.38;;
62794;SDS011;48836;51.378;0.102;2022-07-04T06:38:13;3.80;;;1.75;;
62794;SDS011;48836;51.378;0.102;2022-07-04T06:40:41;2.40;;;1.60;;
62794;SDS011;48836;51.378;0.102;2022-07-04T06:43:09;6.53;;;1.80;;
62794;SDS011;48836;51.378;0.102;2022-07-04T06:45:37;5.22;;;1.85;;
62794;SDS011;48836;51.378;0.102;2022-07-04T06:48:05;5.88;;;2.10;;
62794;SDS011;48836;51.378;0.102;2022-07-04T06:50:33;3.42;;;1.48;;
62794;SDS011;48836;51.378;0.102;2022-07-04T06:53:07;5.68;;;1.95;;
62794;SDS011;48836;51.378;0.102;2022-07-04T06:55:36;3.47;;;2.28;;
62794;SDS011;48836;51.378;0.102;2022-07-04T07:00:33;2.22;;;1.50;;
62794;SDS011;48836;51.378;0.102;2022-07-04T07:03:02;3.25;;;1.45;;
62794;SDS011;48836;51.378;0.102;2022-07-04T07:05:30;3.90;;;1.55;;
62794;SDS011;48836;51.378;0.102;2022-07-04T07:08:18;1.92;;;1.83;;
62794;SDS011;48836;51.378;0.102;2022-07-04T07:10:46;3.08;;;1.75;;
62794;SDS011;48836;51.378;0.102;2022-07-04T07:13:14;1.50;;;1.40;;
62794;SDS011;48836;51.378;0.102;2022-07-04T07:15:41;2.20;;;1.50;;
62794;SDS011;48836;51.378;0.102;2022-07-04T07:18:09;6.95;;;1.65;;
62794;SDS011;48836;51.378;0.102;2022-07-04T07:20:37;4.00;;;1.70;;
62794;SDS011;48836;51.378;0.102;2022-07-04T07:23:04;1.67;;;1.45;;
62794;SDS011;48836;51.378;0.102;2022-07-04T07:25:32;4.95;;;1.30;;
62794;SDS011;48836;51.378;0.102;2022-07-04T07:28:00;8.93;;;1.83;;
62794;SDS011;48836;51.378;0.102;2022-07-04T07:30:28;2.65;;;1.48;;
62794;SDS011;48836;51.378;0.102;2022-07-04T07:32:56;5.05;;;1.83;;
62794;SDS011;48836;51.378;0.102;2022-07-04T07:35:23;5.65;;;1.25;;
62794;SDS011;48836;51.378;0.102;2022-07-04T07:37:51;4.70;;;1.25;;
62794;SDS011;48836;51.378;0.102;2022-07-04T07:40:18;6.07;;;1.55;;
62794;SDS011;48836;51.378;0.102;2022-07-04T07:42:46;5.95;;;1.45;;
62794;SDS011;48836;51.378;0.102;2022-07-04T07:45:14;1.25;;;1.10;;
62794;SDS011;48836;51.378;0.102;2022-07-04T07:47:41;1.08;;;1.02;;
62794;SDS011;48836;51.378;0.102;2022-07-04T07:50:09;1.27;;;0.88;;
62794;SDS011;48836;51.378;0.102;2022-07-04T07:52:37;1.20;;;0.90;;
62794;SDS011;48836;51.378;0.102;2022-07-04T07:55:04;5.05;;;1.15;;
62794;SDS011;48836;51.378;0.102;2022-07-04T07:57:33;15.77;;;3.10;;
62794;SDS011;48836;51.378;0.102;2022-07-04T08:00:02;1.77;;;1.23;;
62794;SDS011;48836;51.378;0.102;2022-07-04T08:02:38;2.83;;;1.35;;
62794;SDS011;48836;51.378;0.102;2022-07-04T08:05:24;2.30;;;1.02;;
62794;SDS011;48836;51.378;0.102;2022-07-04T08:07:52;0.85;;;0.82;;
62794;SDS011;48836;51.378;0.102;2022-07-04T08:10:19;2.40;;;0.80;;
62794;SDS011;48836;51.378;0.102;2022-07-04T08:12:47;1.98;;;0.85;;
62794;SDS011;48836;51.378;0.102;2022-07-04T08:15:15;0.68;;;0.68;;
62794;SDS011;48836;51.378;0.102;2022-07-04T08:17:43;3.50;;;0.70;;
62794;SDS011;48836;51.378;0.102;2022-07-04T08:20:11;2.70;;;0.88;;
62794;SDS011;48836;51.378;0.102;2022-07-04T08:22:39;2.80;;;1.10;;
62794;SDS011;48836;51.378;0.102;2022-07-04T08:25:06;1.40;;;0.80;;
62794;SDS011;48836;51.378;0.102;2022-07-04T08:27:34;0.77;;;0.70;;
62794;SDS011;48836;51.378;0.102;2022-07-04T08:30:02;1.45;;;0.80;;
62794;SDS011;48836;51.378;0.102;2022-07-04T08:32:30;1.08;;;0.80;;
62794;SDS011;48836;51.378;0.102;2022-07-04T08:34:58;4.15;;;0.77;;
62794;SDS011;48836;51.378;0.102;2022-07-04T08:37:26;0.85;;;0.75;;
62794;SDS011;48836;51.378;0.102;2022-07-04T08:39:53;1.50;;;0.80;;
62794;SDS011;48836;51.378;0.102;2022-07-04T08:42:21;2.47;;;0.90;;
62794;SDS011;48836;51.378;0.102;2022-07-04T08:44:50;10.80;;;1.42;;
62794;SDS011;48836;51.378;0.102;2022-07-04T08:47:19;4.55;;;0.90;;
62794;SDS011;48836;51.378;0.102;2022-07-04T08:52:41;1.52;;;0.98;;
62794;SDS011;48836;51.378;0.102;2022-07-04T08:55:10;1.85;;;0.70;;
62794;SDS011;48836;51.378;0.102;2022-07-04T08:57:58;3.60;;;0.68;;
62794;SDS011;48836;51.378;0.102;2022-07-04T09:00:44;0.88;;;0.60;;
62794;SDS011;48836;51.378;0.102;2022-07-04T09:03:12;4.78;;;0.80;;
62794;SDS011;48836;51.378;0.102;2022-07-04T09:05:40;2.05;;;0.65;;
62794;SDS011;48836;51.378;0.102;2022-07-04T09:08:08;2.17;;;0.75;;
62794;SDS011;48836;51.378;0.102;2022-07-04T09:10:36;2.85;;;0.80;;
62794;SDS011;48836;51.378;0.102;2022-07-04T09:13:04;1.27;;;0.60;;
62794;SDS011;48836;51.378;0.102;2022-07-04T09:15:39;4.20;;;0.75;;
62794;SDS011;48836;51.378;0.102;2022-07-04T09:20:54;2.70;;;0.70;;
62794;SDS011;48836;51.378;0.102;2022-07-04T09:23:24;4.45;;;0.63;;
62794;SDS011;48836;51.378;0.102;2022-07-04T09:26:39;3.00;;;1.30;;
62794;SDS011;48836;51.378;0.102;2022-07-04T09:28:52;1.08;;;0.60;;
62794;SDS011;48836;51.378;0.102;2022-07-04T09:31:25;1.10;;;0.80;;
62794;SDS011;48836;51.378;0.102;2022-07-04T09:33:55;2.78;;;0.88;;
62794;SDS011;48836;51.378;0.102;2022-07-04T09:36:28;2.63;;;0.50;;
62794;SDS011;48836;51.378;0.102;2022-07-04T09:41:49;0.60;;;0.60;;
62794;SDS011;48836;51.378;0.102;2022-07-04T09:44:17;1.25;;;0.57;;
62794;SDS011;48836;51.378;0.102;2022-07-04T09:46:45;5.07;;;0.75;;
62794;SDS011;48836;51.378;0.102;2022-07-04T09:49:13;0.57;;;0.57;;
62794;SDS011;48836;51.378;0.102;2022-07-04T09:51:44;0.40;;;0.40;;
62794;SDS011;48836;51.378;0.102;2022-07-04T09:54:26;0.60;;;0.32;;
62794;SDS011;48836;51.378;0.102;2022-07-04T09:57:00;1.08;;;0.70;;
62794;SDS011;48836;51.378;0.102;2022-07-04T09:59:29;0.90;;;0.43;;
62794;SDS011;48836;51.378;0.102;2022-07-04T10:02:10;6.15;;;0.70;;
62794;SDS011;48836;51.378;0.102;2022-07-04T10:04:57;2.08;;;0.40;;
62794;SDS011;48836;51.378;0.102;2022-07-04T10:07:33;1.05;;;0.60;;
62794;SDS011;48836;51.378;0.102;2022-07-04T10:10:22;3.10;;;1.38;;
62794;SDS011;48836;51.378;0.102;2022-07-04T10:12:56;0.38;;;0.38;;
62794;SDS011;48836;51.378;0.102;2022-07-04T10:15:26;1.83;;;0.47;;
62794;SDS011;48836;51.378;0.102;2022-07-04T10:17:54;4.47;;;0.80;;
62794;SDS011;48836;51.378;0.102;2022-07-04T10:20:21;2.13;;;0.77;;
62794;SDS011;48836;51.378;0.102;2022-07-04T10:22:49;1.98;;;0.63;;
62794;SDS011;48836;51.378;0.102;2022-07-04T10:25:17;1.05;;;0.50;;
62794;SDS011;48836;51.378;0.102;2022-07-04T10:27:45;1.58;;;0.47;;
62794;SDS011;48836;51.378;0.102;2022-07-04T10:30:16;1.58;;;0.50;;
62794;SDS011;48836;51.378;0.102;2022-07-04T10:32:49;0.40;;;0.40;;
62794;SDS011;48836;51.378;0.102;2022-07-04T10:35:18;1.33;;;0.40;;
62794;SDS011;48836;51.378;0.102;2022-07-04T10:38:18;1.13;;;0.60;;
62794;SDS011;48836;51.378;0.102;2022-07-04T10:40:53;3.22;;;0.60;;
62794;SDS011;48836;51.378;0.102;2022-07-04T10:51:52;3.90;;;0.60;;
62794;SDS011;48836;51.378;0.102;2022-07-04T10:54:16;0.52;;;0.50;;
62794;SDS011;48836;51.378;0.102;2022-07-04T10:57:28;1.30;;;0.40;;
62794;SDS011;48836;51.378;0.102;2022-07-04T10:59:37;4.22;;;0.80;;
62794;SDS011;48836;51.378;0.102;2022-07-04T11:20:35;0.88;;;0.50;;
62794;SDS011;48836;51.378;0.102;2022-07-04T11:23:15;3.50;;;0.60;;
62794;SDS011;48836;51.378;0.102;2022-07-04T11:25:46;2.88;;;0.63;;
62794;SDS011;48836;51.378;0.102;2022-07-04T11:28:20;1.85;;;0.70;;
62794;SDS011;48836;51.378;0.102;2022-07-04T11:31:12;2.75;;;0.68;;
62794;SDS011;48836;51.378;0.102;2022-07-04T11:33:42;0.75;;;0.63;;
62794;SDS011;48836;51.378;0.102;2022-07-04T11:38:52;2.30;;;0.90;;
62794;SDS011;48836;51.378;0.102;2022-07-04T11:44:24;1.42;;;0.57;;
62794;SDS011;48836;51.378;0.102;2022-07-04T11:49:50;1.65;;;0.50;;
62794;SDS011;48836;51.378;0.102;2022-07-04T11:52:20;0.70;;;0.70;;
62794;SDS011;48836;51.378;0.102;2022-07-04T11:55:19;1.60;;;0.60;;
62794;SDS011;48836;51.378;0.102;2022-07-04T11:57:49;5.15;;;1.15;;
62794;SDS011;48836;51.378;0.102;2022-07-04T12:00:20;1.60;;;0.63;;
62794;SDS011;48836;51.378;0.102;2022-07-04T12:02:51;2.20;;;0.57;;
62794;SDS011;48836;51.378;0.102;2022-07-04T12:05:19;0.55;;;0.38;;
62794;SDS011;48836;51.378;0.102;2022-07-04T12:07:48;0.68;;;0.50;;
62794;SDS011;48836;51.378;0.102;2022-07-04T12:10:36;3.00;;;0.80;;
62794;SDS011;48836;51.378;0.102;2022-07-04T12:13:04;4.87;;;1.47;;
62794;SDS011;48836;51.378;0.102;2022-07-04T12:15:48;2.97;;;0.90;;
62794;SDS011;48836;51.378;0.102;2022-07-04T12:18:18;0.70;;;0.70;;
62794;SDS011;48836;51.378;0.102;2022-07-04T12:20:46;1.35;;;1.17;;
62794;SDS011;48836;51.378;0.102;2022-07-04T12:23:15;6.22;;;1.08;;
62794;SDS011;48836;51.378;0.102;2022-07-04T12:25:46;3.55;;;0.75;;
62794;SDS011;48836;51.378;0.102;2022-07-04T12:28:15;3.60;;;0.80;;
62794;SDS011;48836;51.378;0.102;2022-07-04T12:30:52;1.35;;;0.68;;
62794;SDS011;48836;51.378;0.102;2022-07-04T12:33:26;1.85;;;0.68;;
62794;SDS011;48836;51.378;0.102;2022-07-04T12:35:56;0.88;;;0.88;;
62794;SDS011;48836;51.378;0.102;2022-07-04T12:38:34;4.90;;;0.75;;
62794;SDS011;48836;51.378;0.102;2022-07-04T12:48:52;1.00;;;0.60;;
62794;SDS011;48836;51.378;0.102;2022-07-04T12:51:21;0.98;;;0.80;;
62794;SDS011;48836;51.378;0.102;2022-07-04T12:54:06;3.05;;;0.90;;
62794;SDS011;48836;51.378;0.102;2022-07-04T12:56:36;2.45;;;0.93;;
62794;SDS011;48836;51.378;0.102;2022-07-04T12:59:10;1.95;;;0.73;;
62794;SDS011;48836;51.378;0.102;2022-07-04T13:01:40;2.92;;;0.60;;
62794;SDS011;48836;51.378;0.102;2022-07-04T13:04:10;2.13;;;0.80;;
62794;SDS011;48836;51.378;0.102;2022-07-04T13:06:38;2.40;;;0.97;;
62794;SDS011;48836;51.378;0.102;2022-07-04T13:09:06;0.75;;;0.75;;
62794;SDS011;48836;51.378;0.102;2022-07-04T13:11:34;2.22;;;0.88;;
62794;SDS011;48836;51.378;0.102;2022-07-04T13:14:21;1.90;;;0.80;;
62794;SDS011;48836;51.378;0.102;2022-07-04T13:16:49;3.17;;;1.08;;
62794;SDS011;48836;51.378;0.102;2022-07-04T13:19:17;1.67;;;1.48;;
62794;SDS011;48836;51.378;0.102;2022-07-04T13:21:45;3.20;;;0.68;;
62794;SDS011;48836;51.378;0.102;2022-07-04T13:24:15;3.13;;;0.77;;
62794;SDS011;48836;51.378;0.102;2022-07-04T13:26:42;2.25;;;0.70;;
62794;SDS011;48836;51.378;0.102;2022-07-04T13:29:10;2.05;;;0.50;;
62794;SDS011;48836;51.378;0.102;2022-07-04T13:31:39;2.10;;;0.60;;
62794;SDS011;48836;51.378;0.102;2022-07-04T13:34:07;1.03;;;0.66;;
62794;SDS011;48836;51.378;0.102;2022-07-04T13:36:35;1.40;;;0.70;;
62794;SDS011;48836;51.378;0.102;2022-07-04T13:39:02;2.15;;;0.80;;
62794;SDS011;48836;51.378;0.102;2022-07-04T13:41:32;0.85;;;0.60;;
62794;SDS011;48836;51.378;0.102;2022-07-04T13:44:01;3.50;;;0.60;;
62794;SDS011;48836;51.378;0.102;2022-07-04T13:46:31;5.35;;;0.85;;
62794;SDS011;48836;51.378;0.102;2022-07-04T13:49:03;3.05;;;0.82;;
62794;SDS011;48836;51.378;0.102;2022-07-04T13:51:39;0.75;;;0.55;;
62794;SDS011;48836;51.378;0.102;2022-07-04T13:54:08;1.92;;;0.77;;
62794;SDS011;48836;51.378;0.102;2022-07-04T13:56:36;5.15;;;0.95;;
62794;SDS011;48836;51.378;0.102;2022-07-04T13:59:04;2.95;;;0.90;;
62794;SDS011;48836;51.378;0.102;2022-07-04T14:01:32;1.95;;;0.90;;
62794;SDS011;48836;51.378;0.102;2022-07-04T14:04:00;3.10;;;0.70;;
62794;SDS011;48836;51.378;0.102;2022-07-04T14:06:28;1.30;;;0.90;;
62794;SDS011;48836;51.378;0.102;2022-07-04T14:08:55;1.92;;;0.70;;
62794;SDS011;48836;51.378;0.102;2022-07-04T14:11:23;2.08;;;0.60;;
62794;SDS011;48836;51.378;0.102;2022-07-04T14:13:51;4.13;;;1.05;;
62794;SDS011;48836;51.378;0.102;2022-07-04T14:16:19;4.33;;;1.00;;
62794;SDS011;48836;51.378;0.102;2022-07-04T14:18:47;1.92;;;0.70;;
62794;SDS011;48836;51.378;0.102;2022-07-04T14:21:14;3.38;;;0.90;;
62794;SDS011;48836;51.378;0.102;2022-07-04T14:23:42;1.95;;;0.75;;
62794;SDS011;48836;51.378;0.102;2022-07-04T14:26:13;3.90;;;1.63;;
62794;SDS011;48836;51.378;0.102;2022-07-04T14:28:43;3.17;;;0.70;;
62794;SDS011;48836;51.378;0.102;2022-07-04T14:31:13;1.23;;;0.98;;
62794;SDS011;48836;51.378;0.102;2022-07-04T14:33:41;1.58;;;0.77;;
62794;SDS011;48836;51.378;0.102;2022-07-04T14:36:09;2.03;;;0.80;;
62794;SDS011;48836;51.378;0.102;2022-07-04T14:38:37;1.33;;;0.90;;
62794;SDS011;48836;51.378;0.102;2022-07-04T14:41:05;2.22;;;0.98;;
62794;SDS011;48836;51.378;0.102;2022-07-04T14:43:39;3.90;;;0.95;;
62794;SDS011;48836;51.378;0.102;2022-07-04T14:46:08;3.58;;;1.13;;
62794;SDS011;48836;51.378;0.102;2022-07-04T14:48:37;3.20;;;0.60;;
62794;SDS011;48836;51.378;0.102;2022-07-04T14:51:05;2.70;;;1.05;;
62794;SDS011;48836;51.378;0.102;2022-07-04T14:53:33;3.92;;;0.85;;
62794;SDS011;48836;51.378;0.102;2022-07-04T14:56:01;7.43;;;1.13;;
62794;SDS011;48836;51.378;0.102;2022-07-04T14:58:29;5.10;;;1.30;;
62794;SDS011;48836;51.378;0.102;2022-07-04T15:00:57;1.75;;;0.75;;
62794;SDS011;48836;51.378;0.102;2022-07-04T15:03:25;1.85;;;0.85;;
62794;SDS011;48836;51.378;0.102;2022-07-04T15:05:52;2.35;;;0.80;;
62794;SDS011;48836;51.378;0.102;2022-07-04T15:08:20;0.63;;;0.63;;
62794;SDS011;48836;51.378;0.102;2022-07-04T15:10:48;2.13;;;0.93;;
62794;SDS011;48836;51.378;0.102;2022-07-04T15:13:35;1.58;;;0.80;;
62794;SDS011;48836;51.378;0.102;2022-07-04T15:16:04;1.98;;;0.98;;
62794;SDS011;48836;51.378;0.102;2022-07-04T15:18:49;6.47;;;0.95;;
62794;SDS011;48836;51.378;0.102;2022-07-04T15:21:20;1.35;;;0.77;;
62794;SDS011;48836;51.378;0.102;2022-07-04T15:24:06;6.78;;;1.10;;
62794;SDS011;48836;51.378;0.102;2022-07-04T15:26:42;2.53;;;0.90;;
62794;SDS011;48836;51.378;0.102;2022-07-04T15:29:17;1.60;;;0.65;;
62794;SDS011;48836;51.378;0.102;2022-07-04T15:31:46;2.33;;;0.98;;
62794;SDS011;48836;51.378;0.102;2022-07-04T15:34:14;4.70;;;1.00;;
62794;SDS011;48836;51.378;0.102;2022-07-04T15:36:42;3.30;;;0.63;;
62794;SDS011;48836;51.378;0.102;2022-07-04T15:39:11;2.45;;;1.02;;
62794;SDS011;48836;51.378;0.102;2022-07-04T15:41:41;2.13;;;0.95;;
62794;SDS011;48836;51.378;0.102;2022-07-04T15:44:11;2.45;;;0.90;;
62794;SDS011;48836;51.378;0.102;2022-07-04T15:46:38;3.13;;;0.85;;
62794;SDS011;48836;51.378;0.102;2022-07-04T15:49:26;2.43;;;0.80;;
62794;SDS011;48836;51.378;0.102;2022-07-04T15:51:54;1.88;;;0.82;;
62794;SDS011;48836;51.378;0.102;2022-07-04T15:54:22;1.40;;;0.70;;
62794;SDS011;48836;51.378;0.102;2022-07-04T15:56:50;1.05;;;0.80;;
62794;SDS011;48836;51.378;0.102;2022-07-04T15:59:17;0.90;;;0.70;;
62794;SDS011;48836;51.378;0.102;2022-07-04T16:01:45;1.23;;;0.68;;
62794;SDS011;48836;51.378;0.102;2022-07-04T16:04:13;2.05;;;1.08;;